sensor_id;sensor_type;location;lat;lon;timestamp;pressure;altitude;pressure_sealevel;temperature;humidity
50518;BME280;37075;44.084;2.962;2024-01-30T05:22:32;99277.19;;;11.49;61.78
50518;BME280;37075;44.084;2.962;2024-01-30T05:25:19;99270.09;;;11.48;61.87
50518;BME280;37075;44.084;2.962;2024-01-30T05:28:05;99276.06;;;11.50;61.91
50518;BME280;37075;44.084;2.962;2024-01-30T05:30:51;99278.78;;;11.50;61.89
50518;BME280;37075;44.084;2.962;2024-01-30T05:33:37;99287.81;;;11.50;61.86
50518;BME280;37075;44.084;2.962;2024-01-30T05:36:23;99289.44;;;11.51;61.90
50518;BME280;37075;44.084;2.962;2024-01-30T05:39:10;99289.44;;;11.51;61.78
50518;BME280;37075;44.084;2.962;2024-01-30T05:41:56;99285.88;;;11.51;61.90
50518;BME280;37075;44.084;2.962;2024-01-30T05:44:42;99296.50;;;11.52;61.71
50518;BME280;37075;44.084;2.962;2024-01-30T05:47:28;99290.22;;;11.52;61.86
50518;BME280;37075;44.084;2.962;2024-01-30T05:50:14;99296.22;;;11.54;61.88
50518;BME280;37075;44.084;2.962;2024-01-30T05:53:00;99297.81;;;11.55;61.77
50518;BME280;37075;44.084;2.962;2024-01-30T05:55:47;99293.97;;;11.56;61.76
50518;BME280;37075;44.084;2.962;2024-01-30T05:58:33;99299.13;;;11.57;61.93
50518;BME280;37075;44.084;2.962;2024-01-30T06:01:19;99300.75;;;11.58;61.86
50518;BME280;37075;44.084;2.962;2024-01-30T06:04:05;99292.56;;;11.58;61.90
50518;BME280;37075;44.084;2.962;2024-01-30T06:06:51;99296.91;;;11.59;61.79
50518;BME280;37075;44.084;2.962;2024-01-30T06:09:37;99296.91;;;11.59;61.81
50518;BME280;37075;44.084;2.962;2024-01-30T06:12:25;99292.56;;;11.58;61.81
50518;BME280;37075;44.084;2.962;2024-01-30T06:15:11;99294.19;;;11.59;61.90
50518;BME280;37075;44.084;2.962;2024-01-30T06:17:57;99295.28;;;11.58;61.80
50518;BME280;37075;44.084;2.962;2024-01-30T06:20:43;99282.75;;;11.57;61.76
50518;BME280;37075;44.084;2.962;2024-01-30T06:23:29;99285.47;;;11.57;61.99
50518;BME280;37075;44.084;2.962;2024-01-30T06:26:16;99292.88;;;11.57;61.92
50518;BME280;37075;44.084;2.962;2024-01-30T06:29:03;99298.63;;;11.55;62.18
50518;BME280;37075;44.084;2.962;2024-01-30T06:31:49;99303.00;;;11.56;62.14
50518;BME280;37075;44.084;2.962;2024-01-30T06:34:35;99305.72;;;11.56;62.18
50518;BME280;37075;44.084;2.962;2024-01-30T06:37:21;99308.44;;;11.56;62.30
50518;BME280;37075;44.084;2.962;2024-01-30T06:40:07;99305.72;;;11.56;62.42
50518;BME280;37075;44.084;2.962;2024-01-30T06:42:53;99308.44;;;11.56;62.55
50518;BME280;37075;44.084;2.962;2024-01-30T06:45:41;99309.25;;;11.57;62.55
50518;BME280;37075;44.084;2.962;2024-01-30T06:48:28;99317.47;;;11.57;62.55
50518;BME280;37075;44.084;2.962;2024-01-30T06:51:13;99304.31;;;11.59;62.44
50518;BME280;37075;44.084;2.962;2024-01-30T06:53:59;99311.69;;;11.58;62.65
50518;BME280;37075;44.084;2.962;2024-01-30T06:56:45;99312.50;;;11.59;62.61
50518;BME280;37075;44.084;2.962;2024-01-30T06:59:31;99319.88;;;11.58;62.63
50518;BME280;37075;44.084;2.962;2024-01-30T07:02:18;99313.31;;;11.59;62.58
50518;BME280;37075;44.084;2.962;2024-01-30T07:05:04;99323.13;;;11.60;62.59
50518;BME280;37075;44.084;2.962;2024-01-30T07:07:50;99322.03;;;11.61;62.58
50518;BME280;37075;44.084;2.962;2024-01-30T07:10:36;99323.63;;;11.62;62.67
50518;BME280;37075;44.084;2.962;2024-01-30T07:13:22;99324.75;;;11.61;62.66
50518;BME280;37075;44.084;2.962;2024-01-30T07:16:08;99323.13;;;11.60;62.96
50518;BME280;37075;44.084;2.962;2024-01-30T07:18:55;99323.94;;;11.61;62.97
50518;BME280;37075;44.084;2.962;2024-01-30T07:21:41;99326.97;;;11.59;63.09
50518;BME280;37075;44.084;2.962;2024-01-30T07:24:27;99331.84;;;11.62;63.01
50518;BME280;37075;44.084;2.962;2024-01-30T07:27:14;99335.38;;;11.63;63.13
50518;BME280;37075;44.084;2.962;2024-01-30T07:30:02;99343.28;;;11.64;63.03
50518;BME280;37075;44.084;2.962;2024-01-30T07:32:49;99342.97;;;11.66;62.92
50518;BME280;37075;44.084;2.962;2024-01-30T07:35:36;99343.47;;;11.68;63.03
50518;BME280;37075;44.084;2.962;2024-01-30T07:38:22;99348.38;;;11.71;63.13
50518;BME280;37075;44.084;2.962;2024-01-30T07:41:08;99352.19;;;11.70;63.11
50518;BME280;37075;44.084;2.962;2024-01-30T07:43:54;99348.66;;;11.69;63.15
50518;BME280;37075;44.084;2.962;2024-01-30T07:46:39;99359.00;;;11.72;63.31
50518;BME280;37075;44.084;2.962;2024-01-30T07:49:25;99367.72;;;11.74;63.39
50518;BME280;37075;44.084;2.962;2024-01-30T07:52:13;99371.75;;;11.77;63.30
50518;BME280;37075;44.084;2.962;2024-01-30T07:54:59;99366.53;;;11.81;63.19
50518;BME280;37075;44.084;2.962;2024-01-30T07:57:45;99370.88;;;11.82;63.30
50518;BME280;37075;44.084;2.962;2024-01-30T08:00:31;99374.94;;;11.84;63.19
50518;BME280;37075;44.084;2.962;2024-01-30T08:03:16;99369.97;;;11.86;63.35
50518;BME280;37075;44.084;2.962;2024-01-30T08:06:03;99373.22;;;11.88;63.28
50518;BME280;37075;44.084;2.962;2024-01-30T08:08:51;99374.84;;;11.89;63.23
50518;BME280;37075;44.084;2.962;2024-01-30T08:11:38;99382.44;;;11.92;63.27
50518;BME280;37075;44.084;2.962;2024-01-30T08:14:24;99382.63;;;11.96;63.29
50518;BME280;37075;44.084;2.962;2024-01-30T08:17:10;99384.78;;;11.99;63.26
50518;BME280;37075;44.084;2.962;2024-01-30T08:19:56;99389.66;;;12.02;63.26
50518;BME280;37075;44.084;2.962;2024-01-30T08:22:42;99382.25;;;12.02;63.40
50518;BME280;37075;44.084;2.962;2024-01-30T08:25:30;99385.72;;;12.08;63.31
50518;BME280;37075;44.084;2.962;2024-01-30T08:28:16;99381.25;;;12.12;63.26
50518;BME280;37075;44.084;2.962;2024-01-30T08:31:02;99377.09;;;12.15;63.22
50518;BME280;37075;44.084;2.962;2024-01-30T08:33:49;99381.97;;;12.18;63.21
50518;BME280;37075;44.084;2.962;2024-01-30T08:36:35;99393.09;;;12.21;63.30
50518;BME280;37075;44.084;2.962;2024-01-30T08:39:22;99385.44;;;12.23;63.14
50518;BME280;37075;44.084;2.962;2024-01-30T08:42:09;99391.91;;;12.27;63.28
50518;BME280;37075;44.084;2.962;2024-01-30T08:44:55;99386.63;;;12.31;63.05
50518;BME280;37075;44.084;2.962;2024-01-30T08:47:41;99389.56;;;12.34;63.08
50518;BME280;37075;44.084;2.962;2024-01-30T08:50:26;99389.47;;;12.40;63.11
50518;BME280;37075;44.084;2.962;2024-01-30T08:53:13;99397.38;;;12.41;62.87
50518;BME280;37075;44.084;2.962;2024-01-30T08:55:59;99389.84;;;12.47;62.76
50518;BME280;37075;44.084;2.962;2024-01-30T08:58:46;99390.91;;;12.51;62.73
50518;BME280;37075;44.084;2.962;2024-01-30T09:01:32;99396.25;;;12.56;62.66
50518;BME280;37075;44.084;2.962;2024-01-30T09:04:18;99387.44;;;12.59;62.19
50518;BME280;37075;44.084;2.962;2024-01-30T09:07:03;99395.53;;;12.64;62.26
50518;BME280;37075;44.084;2.962;2024-01-30T09:09:50;99394.91;;;12.67;62.04
50518;BME280;37075;44.084;2.962;2024-01-30T09:12:36;99392.69;;;12.69;61.99
50518;BME280;37075;44.084;2.962;2024-01-30T09:15:24;99397.53;;;12.72;61.91
50518;BME280;37075;44.084;2.962;2024-01-30T09:18:10;99396.41;;;12.73;61.78
50518;BME280;37075;44.084;2.962;2024-01-30T09:20:56;99407.91;;;12.75;61.68
50518;BME280;37075;44.084;2.962;2024-01-30T09:23:43;99405.66;;;12.77;61.71
50518;BME280;37075;44.084;2.962;2024-01-30T09:26:28;99406.66;;;12.81;61.74
50518;BME280;37075;44.084;2.962;2024-01-30T09:29:15;99401.19;;;12.81;61.65
50518;BME280;37075;44.084;2.962;2024-01-30T09:32:04;99406.06;;;12.84;61.57
50518;BME280;37075;44.084;2.962;2024-01-30T09:34:50;99404.44;;;12.83;61.42
50518;BME280;37075;44.084;2.962;2024-01-30T09:37:36;99398.97;;;12.83;61.49
50518;BME280;37075;44.084;2.962;2024-01-30T09:40:22;99397.03;;;12.84;61.52
50518;BME280;37075;44.084;2.962;2024-01-30T09:43:11;99397.03;;;12.84;61.48
50518;BME280;37075;44.084;2.962;2024-01-30T09:46:02;99391.25;;;12.85;61.63
50518;BME280;37075;44.084;2.962;2024-01-30T09:48:50;99399.47;;;12.85;61.55
50518;BME280;37075;44.084;2.962;2024-01-30T09:51:36;99411.41;;;12.89;61.65
50518;BME280;37075;44.084;2.962;2024-01-30T09:54:22;99404.19;;;12.93;61.73
50518;BME280;37075;44.084;2.962;2024-01-30T09:57:09;99409.06;;;12.96;61.60
50518;BME280;37075;44.084;2.962;2024-01-30T09:59:55;99409.56;;;12.98;61.58
50518;BME280;37075;44.084;2.962;2024-01-30T10:02:41;99410.06;;;13.01;61.60
50518;BME280;37075;44.084;2.962;2024-01-30T10:05:31;99416.06;;;13.03;61.50
50518;BME280;37075;44.084;2.962;2024-01-30T10:08:18;99422.03;;;13.05;61.42
50518;BME280;37075;44.084;2.962;2024-01-30T10:11:05;99418.38;;;13.09;61.41
50518;BME280;37075;44.084;2.962;2024-01-30T10:13:51;99419.31;;;13.05;61.13
50518;BME280;37075;44.084;2.962;2024-01-30T10:16:37;99422.41;;;13.12;61.45
50518;BME280;37075;44.084;2.962;2024-01-30T10:19:22;99420.91;;;13.19;61.59
50518;BME280;37075;44.084;2.962;2024-01-30T10:22:10;99414.72;;;13.27;61.32
50518;BME280;37075;44.084;2.962;2024-01-30T10:24:56;99421.06;;;13.37;61.37
50518;BME280;37075;44.084;2.962;2024-01-30T10:27:42;99412.91;;;13.45;61.05
50518;BME280;37075;44.084;2.962;2024-01-30T10:30:28;99414.38;;;13.51;60.86
50518;BME280;37075;44.084;2.962;2024-01-30T10:33:14;99420.25;;;13.58;60.75
50518;BME280;37075;44.084;2.962;2024-01-30T10:36:01;99423.06;;;13.67;60.63
50518;BME280;37075;44.084;2.962;2024-01-30T10:38:50;99417.94;;;13.74;60.47
50518;BME280;37075;44.084;2.962;2024-01-30T10:41:43;99419.13;;;13.82;60.15
50518;BME280;37075;44.084;2.962;2024-01-30T10:44:30;99412.88;;;13.90;60.08
50518;BME280;37075;44.084;2.962;2024-01-30T10:47:26;99421.47;;;13.97;59.62
50518;BME280;37075;44.084;2.962;2024-01-30T10:50:12;99424.88;;;14.03;59.66
50518;BME280;37075;44.084;2.962;2024-01-30T10:52:59;99417.34;;;14.08;59.41
50518;BME280;37075;44.084;2.962;2024-01-30T10:55:48;99419.78;;;14.10;59.15
50518;BME280;37075;44.084;2.962;2024-01-30T10:58:34;99415.41;;;14.09;58.80
50518;BME280;37075;44.084;2.962;2024-01-30T11:01:20;99419.47;;;14.11;58.85
50518;BME280;37075;44.084;2.962;2024-01-30T11:04:08;99413.34;;;14.14;58.90
50518;BME280;37075;44.084;2.962;2024-01-30T11:06:54;99419.00;;;14.18;58.55
50518;BME280;37075;44.084;2.962;2024-01-30T11:09:40;99416.59;;;14.25;58.64
50518;BME280;37075;44.084;2.962;2024-01-30T11:12:32;99408.84;;;14.27;58.37
50518;BME280;37075;44.084;2.962;2024-01-30T11:15:19;99408.09;;;14.35;58.32
50518;BME280;37075;44.084;2.962;2024-01-30T11:18:06;99407.97;;;14.40;58.28
50518;BME280;37075;44.084;2.962;2024-01-30T11:20:52;99408.66;;;14.46;58.27
50518;BME280;37075;44.084;2.962;2024-01-30T11:23:42;99402.19;;;14.50;57.96
50518;BME280;37075;44.084;2.962;2024-01-30T11:26:28;99403.19;;;14.55;57.78
50518;BME280;37075;44.084;2.962;2024-01-30T11:29:16;99403.00;;;14.51;57.47
50518;BME280;37075;44.084;2.962;2024-01-30T11:32:03;99397.69;;;14.55;57.49
50518;BME280;37075;44.084;2.962;2024-01-30T11:34:49;99389.94;;;14.57;57.37
50518;BME280;37075;44.084;2.962;2024-01-30T11:37:37;99394.00;;;14.59;57.48
50518;BME280;37075;44.084;2.962;2024-01-30T11:40:25;99389.31;;;14.60;57.29
50518;BME280;37075;44.084;2.962;2024-01-30T11:43:11;99389.00;;;14.61;56.93
50518;BME280;37075;44.084;2.962;2024-01-30T11:45:59;99383.50;;;14.61;57.09
50518;BME280;37075;44.084;2.962;2024-01-30T11:48:45;99385.44;;;14.61;57.28
50518;BME280;37075;44.084;2.962;2024-01-30T11:51:31;99381.41;;;14.58;57.05
50518;BME280;37075;44.084;2.962;2024-01-30T11:54:17;99378.94;;;14.57;56.96
50518;BME280;37075;44.084;2.962;2024-01-30T11:57:04;99379.75;;;14.57;56.90
50518;BME280;37075;44.084;2.962;2024-01-30T11:59:50;99368.78;;;14.57;57.02
50518;BME280;37075;44.084;2.962;2024-01-30T12:02:38;99372.66;;;14.56;56.84
50518;BME280;37075;44.084;2.962;2024-01-30T12:05:24;99377.34;;;14.56;57.03
50518;BME280;37075;44.084;2.962;2024-01-30T12:08:15;99366.34;;;14.56;57.03
50518;BME280;37075;44.084;2.962;2024-01-30T12:11:01;99365.88;;;14.54;56.82
50518;BME280;37075;44.084;2.962;2024-01-30T12:13:50;99361.66;;;14.56;56.92
50518;BME280;37075;44.084;2.962;2024-01-30T12:16:36;99358.63;;;14.58;56.89
50518;BME280;37075;44.084;2.962;2024-01-30T12:19:24;99364.94;;;14.58;56.60
50518;BME280;37075;44.084;2.962;2024-01-30T12:22:10;99355.56;;;14.59;56.64
50518;BME280;37075;44.084;2.962;2024-01-30T12:24:57;99348.31;;;14.63;56.89
50518;BME280;37075;44.084;2.962;2024-01-30T12:27:44;99342.66;;;14.68;56.95
50518;BME280;37075;44.084;2.962;2024-01-30T12:30:30;99337.31;;;14.72;56.52
50518;BME280;37075;44.084;2.962;2024-01-30T12:33:17;99330.38;;;14.74;56.49
50518;BME280;37075;44.084;2.962;2024-01-30T12:36:05;99325.84;;;14.78;56.51
50518;BME280;37075;44.084;2.962;2024-01-30T12:38:51;99318.09;;;14.80;56.20
50518;BME280;37075;44.084;2.962;2024-01-30T12:41:37;99322.44;;;14.81;56.15
50518;BME280;37075;44.084;2.962;2024-01-30T12:44:23;99319.72;;;14.81;56.18
50518;BME280;37075;44.084;2.962;2024-01-30T12:47:10;99319.72;;;14.81;56.02
50518;BME280;37075;44.084;2.962;2024-01-30T12:49:56;99320.22;;;14.84;56.09
50518;BME280;37075;44.084;2.962;2024-01-30T12:52:43;99314.41;;;14.85;55.97
50518;BME280;37075;44.084;2.962;2024-01-30T12:55:29;99318.28;;;14.84;55.61
50518;BME280;37075;44.084;2.962;2024-01-30T12:58:15;99317.75;;;14.82;55.95
50518;BME280;37075;44.084;2.962;2024-01-30T13:01:01;99322.13;;;14.83;55.93
50518;BME280;37075;44.084;2.962;2024-01-30T13:03:47;99317.47;;;14.84;56.01
50518;BME280;37075;44.084;2.962;2024-01-30T13:06:33;99309.72;;;14.86;55.92
50518;BME280;37075;44.084;2.962;2024-01-30T13:09:21;99310.03;;;14.84;55.71
50518;BME280;37075;44.084;2.962;2024-01-30T13:12:07;99303.41;;;14.85;56.00
50518;BME280;37075;44.084;2.962;2024-01-30T13:14:52;99314.41;;;14.85;55.90
50518;BME280;37075;44.084;2.962;2024-01-30T13:17:38;99296.78;;;14.86;55.71
50518;BME280;37075;44.084;2.962;2024-01-30T13:20:24;99305.03;;;14.86;55.68
50518;BME280;37075;44.084;2.962;2024-01-30T13:23:10;99299.06;;;14.84;55.66
50518;BME280;37075;44.084;2.962;2024-01-30T13:25:57;99296.59;;;14.82;55.68
50518;BME280;37075;44.084;2.962;2024-01-30T13:28:43;99301.59;;;14.80;55.73
50518;BME280;37075;44.084;2.962;2024-01-30T13:31:29;99297.25;;;14.79;55.72
50518;BME280;37075;44.084;2.962;2024-01-30T13:34:15;99297.09;;;14.76;55.67
50518;BME280;37075;44.084;2.962;2024-01-30T13:37:02;99295.47;;;14.75;55.80
50518;BME280;37075;44.084;2.962;2024-01-30T13:39:47;99293.53;;;14.75;55.81
50518;BME280;37075;44.084;2.962;2024-01-30T13:42:35;99288.84;;;14.76;55.69
50518;BME280;37075;44.084;2.962;2024-01-30T13:45:20;99288.38;;;14.74;55.58
50518;BME280;37075;44.084;2.962;2024-01-30T13:48:07;99301.28;;;14.73;55.62
50518;BME280;37075;44.084;2.962;2024-01-30T13:50:53;99301.13;;;14.70;55.71
50518;BME280;37075;44.084;2.962;2024-01-30T13:53:40;99302.25;;;14.69;55.72
50518;BME280;37075;44.084;2.962;2024-01-30T13:56:26;99299.03;;;14.67;55.51
50518;BME280;37075;44.084;2.962;2024-01-30T13:59:13;99296.44;;;14.62;55.48
50518;BME280;37075;44.084;2.962;2024-01-30T14:01:59;99302.25;;;14.60;55.69
50518;BME280;37075;44.084;2.962;2024-01-30T14:04:45;99308.06;;;14.59;55.60
50518;BME280;37075;44.084;2.962;2024-01-30T14:07:31;99309.50;;;14.56;55.41
50518;BME280;37075;44.084;2.962;2024-01-30T14:10:17;99303.53;;;14.54;55.36
50518;BME280;37075;44.084;2.962;2024-01-30T14:13:04;99309.66;;;14.51;55.35
50518;BME280;37075;44.084;2.962;2024-01-30T14:15:51;99319.03;;;14.50;55.39
50518;BME280;37075;44.084;2.962;2024-01-30T14:18:37;99312.72;;;14.49;55.37
50518;BME280;37075;44.084;2.962;2024-01-30T14:21:23;99329.53;;;14.48;55.40
50518;BME280;37075;44.084;2.962;2024-01-30T14:24:09;99314.97;;;14.47;55.40
50518;BME280;37075;44.084;2.962;2024-01-30T14:26:55;99317.25;;;14.45;55.35
50518;BME280;37075;44.084;2.962;2024-01-30T14:29:41;99322.53;;;14.42;55.32
50518;BME280;37075;44.084;2.962;2024-01-30T14:32:29;99323.19;;;14.39;55.24
50518;BME280;37075;44.084;2.962;2024-01-30T14:35:15;99315.25;;;14.37;55.17
50518;BME280;37075;44.084;2.962;2024-01-30T14:38:01;99319.13;;;14.36;55.34
50518;BME280;37075;44.084;2.962;2024-01-30T14:40:49;99323.81;;;14.36;55.37
50518;BME280;37075;44.084;2.962;2024-01-30T14:43:35;99328.81;;;14.34;55.27
50518;BME280;37075;44.084;2.962;2024-01-30T14:46:22;99326.88;;;14.34;55.48
50518;BME280;37075;44.084;2.962;2024-01-30T14:49:09;99336.25;;;14.33;55.47
50518;BME280;37075;44.084;2.962;2024-01-30T14:51:55;99327.22;;;14.33;55.59
50518;BME280;37075;44.084;2.962;2024-01-30T14:54:43;99329.16;;;14.32;55.50
50518;BME280;37075;44.084;2.962;2024-01-30T14:57:29;99326.41;;;14.32;55.55
50518;BME280;37075;44.084;2.962;2024-01-30T15:00:15;99331.88;;;14.32;55.60
50518;BME280;37075;44.084;2.962;2024-01-30T15:03:01;99326.41;;;14.32;55.63
50518;BME280;37075;44.084;2.962;2024-01-30T15:05:49;99333.31;;;14.30;55.50
50518;BME280;37075;44.084;2.962;2024-01-30T15:08:35;99332.50;;;14.29;55.49
50518;BME280;37075;44.084;2.962;2024-01-30T15:11:21;99336.69;;;14.27;55.61
50518;BME280;37075;44.084;2.962;2024-01-30T15:14:07;99329.59;;;14.26;55.75
50518;BME280;37075;44.084;2.962;2024-01-30T15:16:53;99338.13;;;14.24;55.76
50518;BME280;37075;44.084;2.962;2024-01-30T15:19:39;99342.00;;;14.23;55.67
50518;BME280;37075;44.084;2.962;2024-01-30T15:22:26;99343.47;;;14.20;55.64
50518;BME280;37075;44.084;2.962;2024-01-30T15:25:12;99339.09;;;14.19;55.80
50518;BME280;37075;44.084;2.962;2024-01-30T15:27:58;99341.03;;;14.19;55.80
50518;BME280;37075;44.084;2.962;2024-01-30T15:30:44;99345.72;;;14.18;55.95
50518;BME280;37075;44.084;2.962;2024-01-30T15:33:32;99338.13;;;14.15;55.92
50518;BME280;37075;44.084;2.962;2024-01-30T15:36:18;99348.59;;;14.13;55.81
50518;BME280;37075;44.084;2.962;2024-01-30T15:39:05;99341.50;;;14.12;55.97
50518;BME280;37075;44.084;2.962;2024-01-30T15:41:51;99348.44;;;14.10;56.04
50518;BME280;37075;44.084;2.962;2024-01-30T15:44:38;99352.31;;;14.09;56.07
50518;BME280;37075;44.084;2.962;2024-01-30T15:47:24;99349.38;;;14.05;55.99
50518;BME280;37075;44.084;2.962;2024-01-30T15:50:11;99353.06;;;14.01;55.99
50518;BME280;37075;44.084;2.962;2024-01-30T15:52:57;99350.63;;;13.99;56.10
50518;BME280;37075;44.084;2.962;2024-01-30T15:55:44;99352.06;;;13.97;56.11
50518;BME280;37075;44.084;2.962;2024-01-30T15:58:30;99346.91;;;13.95;56.38
50518;BME280;37075;44.084;2.962;2024-01-30T16:01:16;99350.59;;;13.91;56.16
50518;BME280;37075;44.084;2.962;2024-01-30T16:04:02;99350.44;;;13.87;56.11
50518;BME280;37075;44.084;2.962;2024-01-30T16:06:48;99349.44;;;13.83;56.33
50518;BME280;37075;44.084;2.962;2024-01-30T16:09:34;99356.38;;;13.80;56.32
50518;BME280;37075;44.084;2.962;2024-01-30T16:12:21;99355.34;;;13.76;56.34
50518;BME280;37075;44.084;2.962;2024-01-30T16:15:07;99364.22;;;13.73;56.46
50518;BME280;37075;44.084;2.962;2024-01-30T16:17:53;99363.22;;;13.69;56.48
50518;BME280;37075;44.084;2.962;2024-01-30T16:20:39;99365.78;;;13.66;56.58
50518;BME280;37075;44.084;2.962;2024-01-30T16:23:26;99367.22;;;13.63;56.60
50518;BME280;37075;44.084;2.962;2024-01-30T16:26:12;99363.69;;;13.63;56.58
50518;BME280;37075;44.084;2.962;2024-01-30T16:29:00;99362.38;;;13.60;56.60
50518;BME280;37075;44.084;2.962;2024-01-30T16:31:46;99363.81;;;13.57;56.61
50518;BME280;37075;44.084;2.962;2024-01-30T16:34:32;99375.09;;;13.56;56.70
50518;BME280;37075;44.084;2.962;2024-01-30T16:37:19;99374.59;;;13.54;56.69
50518;BME280;37075;44.084;2.962;2024-01-30T16:40:05;99376.53;;;13.53;56.80
50518;BME280;37075;44.084;2.962;2024-01-30T16:42:51;99374.69;;;13.49;56.98
50518;BME280;37075;44.084;2.962;2024-01-30T16:45:39;99388.22;;;13.45;56.91
50518;BME280;37075;44.084;2.962;2024-01-30T16:48:26;99380.63;;;13.42;56.93
50518;BME280;37075;44.084;2.962;2024-01-30T16:51:12;99388.34;;;13.40;57.06
50518;BME280;37075;44.084;2.962;2024-01-30T16:53:58;99381.56;;;13.38;56.94
50518;BME280;37075;44.084;2.962;2024-01-30T16:56:45;99386.06;;;13.34;57.03
50518;BME280;37075;44.084;2.962;2024-01-30T16:59:33;99387.00;;;13.29;57.12
50518;BME280;37075;44.084;2.962;2024-01-30T17:02:20;99400.47;;;13.25;57.12
50518;BME280;37075;44.084;2.962;2024-01-30T17:05:07;99401.59;;;13.24;57.25
50518;BME280;37075;44.084;2.962;2024-01-30T17:07:54;99401.09;;;13.22;57.34
50518;BME280;37075;44.084;2.962;2024-01-30T17:10:40;99399.78;;;13.20;57.25
50518;BME280;37075;44.084;2.962;2024-01-30T17:13:26;99398.47;;;13.17;57.31
50518;BME280;37075;44.084;2.962;2024-01-30T17:16:12;99401.81;;;13.14;57.32
50518;BME280;37075;44.084;2.962;2024-01-30T17:18:59;99404.88;;;13.13;57.49
50518;BME280;37075;44.084;2.962;2024-01-30T17:21:45;99401.63;;;13.11;57.58
50518;BME280;37075;44.084;2.962;2024-01-30T17:24:31;99398.38;;;13.09;57.71
50518;BME280;37075;44.084;2.962;2024-01-30T17:27:17;99398.19;;;13.05;57.62
50518;BME280;37075;44.084;2.962;2024-01-30T17:30:05;99402.38;;;13.03;57.60
50518;BME280;37075;44.084;2.962;2024-01-30T17:32:51;99402.16;;;12.99;57.75
50518;BME280;37075;44.084;2.962;2024-01-30T17:35:39;99410.69;;;12.97;57.77
50518;BME280;37075;44.084;2.962;2024-01-30T17:38:25;99412.91;;;12.95;57.81
50518;BME280;37075;44.084;2.962;2024-01-30T17:41:12;99410.47;;;12.94;57.70
50518;BME280;37075;44.084;2.962;2024-01-30T17:43:58;99412.72;;;12.92;57.91
50518;BME280;37075;44.084;2.962;2024-01-30T17:46:43;99422.88;;;12.91;57.82
50518;BME280;37075;44.084;2.962;2024-01-30T17:49:30;99421.56;;;12.89;57.94
50518;BME280;37075;44.084;2.962;2024-01-30T17:52:17;99423.47;;;12.88;57.90
50518;BME280;37075;44.084;2.962;2024-01-30T17:55:04;99424.09;;;12.85;57.97
50518;BME280;37075;44.084;2.962;2024-01-30T17:57:50;99430.69;;;12.84;57.96
50518;BME280;37075;44.084;2.962;2024-01-30T18:00:37;99425.03;;;12.81;58.02
50518;BME280;37075;44.084;2.962;2024-01-30T18:03:23;99430.50;;;12.81;58.18
50518;BME280;37075;44.084;2.962;2024-01-30T18:06:13;99429.19;;;12.78;58.09
50518;BME280;37075;44.084;2.962;2024-01-30T18:09:00;99433.84;;;12.78;58.14
50518;BME280;37075;44.084;2.962;2024-01-30T18:11:47;99430.88;;;12.74;58.13
50518;BME280;37075;44.084;2.962;2024-01-30T18:14:33;99437.47;;;12.73;58.31
50518;BME280;37075;44.084;2.962;2024-01-30T18:17:19;99427.97;;;12.71;58.28
50518;BME280;37075;44.084;2.962;2024-01-30T18:20:05;99429.88;;;12.70;58.33
50518;BME280;37075;44.084;2.962;2024-01-30T18:22:52;99434.84;;;12.68;58.38
50518;BME280;37075;44.084;2.962;2024-01-30T18:25:40;99435.16;;;12.66;58.52
50518;BME280;37075;44.084;2.962;2024-01-30T18:28:26;99437.09;;;12.66;58.49
50518;BME280;37075;44.084;2.962;2024-01-30T18:31:12;99434.34;;;12.66;58.49
50518;BME280;37075;44.084;2.962;2024-01-30T18:33:58;99433.53;;;12.65;58.63
50518;BME280;37075;44.084;2.962;2024-01-30T18:36:44;99430.00;;;12.65;58.57
50518;BME280;37075;44.084;2.962;2024-01-30T18:39:30;99432.22;;;12.63;58.57
50518;BME280;37075;44.084;2.962;2024-01-30T18:42:18;99440.44;;;12.63;58.66
50518;BME280;37075;44.084;2.962;2024-01-30T18:45:05;99439.13;;;12.60;58.72
50518;BME280;37075;44.084;2.962;2024-01-30T18:47:51;99441.38;;;12.58;58.79
50518;BME280;37075;44.084;2.962;2024-01-30T18:50:37;99446.03;;;12.58;58.76
50518;BME280;37075;44.084;2.962;2024-01-30T18:53:22;99452.13;;;12.55;58.71
50518;BME280;37075;44.084;2.962;2024-01-30T18:56:09;99441.16;;;12.55;58.90
50518;BME280;37075;44.084;2.962;2024-01-30T18:58:56;99448.88;;;12.53;58.73
50518;BME280;37075;44.084;2.962;2024-01-30T19:01:42;99454.66;;;12.51;58.86
50518;BME280;37075;44.084;2.962;2024-01-30T19:04:28;99453.31;;;12.49;59.00
50518;BME280;37075;44.084;2.962;2024-01-30T19:07:14;99451.69;;;12.48;58.89
50518;BME280;37075;44.084;2.962;2024-01-30T19:10:00;99446.00;;;12.44;59.02
50518;BME280;37075;44.084;2.962;2024-01-30T19:12:46;99455.34;;;12.43;59.12
50518;BME280;37075;44.084;2.962;2024-01-30T19:15:33;99451.28;;;12.41;59.23
50518;BME280;37075;44.084;2.962;2024-01-30T19:18:19;99455.94;;;12.40;59.30
50518;BME280;37075;44.084;2.962;2024-01-30T19:21:05;99457.88;;;12.40;59.13
50518;BME280;37075;44.084;2.962;2024-01-30T19:23:51;99455.94;;;12.40;59.19
50518;BME280;37075;44.084;2.962;2024-01-30T19:26:39;99457.38;;;12.38;59.18
50518;BME280;37075;44.084;2.962;2024-01-30T19:29:25;99450.28;;;12.37;59.44
50518;BME280;37075;44.084;2.962;2024-01-30T19:32:12;99449.16;;;12.38;59.32
50518;BME280;37075;44.084;2.962;2024-01-30T19:34:58;99453.00;;;12.37;59.36
50518;BME280;37075;44.084;2.962;2024-01-30T19:37:45;99450.28;;;12.37;59.29
50518;BME280;37075;44.084;2.962;2024-01-30T19:40:31;99453.81;;;12.37;59.49
50518;BME280;37075;44.084;2.962;2024-01-30T19:43:17;99457.97;;;12.34;59.47
50518;BME280;37075;44.084;2.962;2024-01-30T19:46:03;99455.25;;;12.34;59.34
50518;BME280;37075;44.084;2.962;2024-01-30T19:48:50;99457.16;;;12.34;59.43
50518;BME280;37075;44.084;2.962;2024-01-30T19:51:36;99463.75;;;12.33;59.41
50518;BME280;37075;44.084;2.962;2024-01-30T19:54:23;99460.19;;;12.32;59.56
50518;BME280;37075;44.084;2.962;2024-01-30T19:57:12;99459.69;;;12.30;59.40
50518;BME280;37075;44.084;2.962;2024-01-30T19:59:58;99463.03;;;12.27;59.52
50518;BME280;37075;44.084;2.962;2024-01-30T20:02:45;99463.34;;;12.26;59.61